TimeEST,TemperatureF,Dew PointF,Humidity,Sea Level PressureIn,VisibilityMPH,Wind Direction,Wind SpeedMPH,Gust SpeedMPH,PrecipitationIn,Events,Conditions,WindDirDegrees,DateUTC
12:53 AM,60.1,51.1,72,29.99,10.0,WSW,5.8,-,N/A,,Clear,250,2012-11-04 04:53:00
1:53 AM,62.1,53.1,72,29.99,10.0,West,5.8,-,N/A,,Partly Cloudy,280,2012-11-04 05:53:00
1:53 AM,63.0,52.0,67,29.99,10.0,West,10.4,-,N/A,,Clear,280,2012-11-04 06:53:00
2:53 AM,62.1,52.0,70,29.96,10.0,West,6.9,-,N/A,,Clear,270,2012-11-04 07:53:00
3:53 AM,60.1,53.1,78,29.96,10.0,West,4.6,-,N/A,,Clear,280,2012-11-04 08:53:00
4:53 AM,57.9,52.0,81,29.97,10.0,West,5.8,-,N/A,,Clear,270,2012-11-04 09:53:00
5:53 AM,59.0,52.0,78,29.98,10.0,West,9.2,-,N/A,,Clear,260,2012-11-04 10:53:00
6:53 AM,57.9,51.1,78,29.99,10.0,West,6.9,-,N/A,,Clear,270,2012-11-04 11:53:00
7:53 AM,59.0,51.1,75,30.00,10.0,West,6.9,-,N/A,,Clear,270,2012-11-04 12:53:00
8:53 AM,61.0,52.0,72,30.00,10.0,West,9.2,-,N/A,,Clear,280,2012-11-04 13:53:00
9:53 AM,64.0,53.1,67,30.00,10.0,West,10.4,-,N/A,,Clear,270,2012-11-04 14:53:00
10:53 AM,66.9,54.0,63,30.00,10.0,WNW,13.8,26.5,N/A,,Partly Cloudy,300,2012-11-04 15:53:00
11:53 AM,68.0,54.0,61,29.99,10.0,WNW,11.5,20.7,N/A,,Clear,290,2012-11-04 16:53:00
12:53 PM,64.9,51.1,61,29.99,10.0,West,11.5,19.6,N/A,,Partly Cloudy,280,2012-11-04 17:53:00
1:53 PM,61.0,54.0,78,29.95,9.0,NW,8.1,-,0.00,Rain,Light Rain,320,2012-11-04 18:53:00
2:53 PM,62.1,55.9,80,29.95,10.0,West,8.1,-,0.01,,Partly Cloudy,260,2012-11-04 19:53:00
3:53 PM,64.0,50.0,60,29.96,10.0,West,15.0,20.7,N/A,,Partly Cloudy,260,2012-11-04 20:53:00
4:53 PM,62.1,46.0,56,29.97,10.0,WNW,10.4,-,N/A,,Clear,290,2012-11-04 21:53:00
5:53 PM,59.0,44.1,58,29.98,10.0,West,11.5,-,N/A,,Clear,270,2012-11-04 22:53:00
6:53 PM,57.0,44.1,62,29.99,10.0,NW,9.2,-,N/A,,Clear,310,2012-11-04 23:53:00
7:53 PM,55.0,43.0,64,29.99,10.0,WNW,8.1,-,N/A,,Clear,300,2012-11-05 00:53:00
8:53 PM,54.0,39.9,59,30.00,10.0,NW,10.4,-,N/A,,Clear,320,2012-11-05 01:53:00
9:53 PM,51.1,39.0,63,30.01,10.0,WNW,5.8,-,N/A,,Clear,300,2012-11-05 02:53:00
10:53 PM,48.9,37.9,66,30.00,10.0,WNW,6.9,-,N/A,,Clear,300,2012-11-05 03:53:00